sensor_id;sensor_type;location;lat;lon;timestamp;pressure;altitude;pressure_sealevel;temperature;humidity
61136;BME280;47021;51.340;12.432;2023-09-19T01:44:09;99334.69;;;22.42;62.02
61136;BME280;47021;51.340;12.432;2023-09-19T02:39:22;99374.72;;;21.93;62.92
61136;BME280;47021;51.340;12.432;2023-09-19T03:07:08;99382.22;;;22.57;59.50
61136;BME280;47021;51.340;12.432;2023-09-19T03:20:43;99402.34;;;22.34;60.09
61136;BME280;47021;51.340;12.432;2023-09-19T03:26:03;99401.81;;;22.44;59.64
61136;BME280;47021;51.340;12.432;2023-09-19T03:39:37;99418.88;;;21.94;60.09
61136;BME280;47021;51.340;12.432;2023-09-19T03:42:19;99418.16;;;22.29;59.39
61136;BME280;47021;51.340;12.432;2023-09-19T04:03:55;99422.31;;;22.19;59.55
61136;BME280;47021;51.340;12.432;2023-09-19T04:12:03;99425.22;;;22.17;59.52
61136;BME280;47021;51.340;12.432;2023-09-19T04:14:39;99431.72;;;22.21;59.12
61136;BME280;47021;51.340;12.432;2023-09-19T04:23:03;99438.34;;;21.88;59.94
61136;BME280;47021;51.340;12.432;2023-09-19T04:28:23;99442.50;;;21.84;60.25
61136;BME280;47021;51.340;12.432;2023-09-19T04:39:05;99470.69;;;21.85;59.65
61136;BME280;47021;51.340;12.432;2023-09-19T04:52:33;99480.06;;;21.87;58.82
61136;BME280;47021;51.340;12.432;2023-09-19T04:55:01;99497.91;;;21.42;60.14
61136;BME280;47021;51.340;12.432;2023-09-19T05:14:04;99517.81;;;22.02;57.85
61136;BME280;47021;51.340;12.432;2023-09-19T05:19:15;99534.38;;;22.04;57.44
61136;BME280;47021;51.340;12.432;2023-09-19T05:21:42;99532.09;;;22.08;56.94
61136;BME280;47021;51.340;12.432;2023-09-19T05:24:22;99532.06;;;21.76;57.85
61136;BME280;47021;51.340;12.432;2023-09-19T05:26:47;99538.59;;;22.12;57.35
61136;BME280;47021;51.340;12.432;2023-09-19T05:29:26;99528.13;;;22.17;57.02
61136;BME280;47021;51.340;12.432;2023-09-19T05:31:57;99535.19;;;21.67;58.20
61136;BME280;47021;51.340;12.432;2023-09-19T05:34:22;99540.09;;;21.70;57.56
61136;BME280;47021;51.340;12.432;2023-09-19T05:36:48;99551.06;;;21.42;58.86
61136;BME280;47021;51.340;12.432;2023-09-19T05:39:22;99550.81;;;21.44;58.59
61136;BME280;47021;51.340;12.432;2023-09-19T05:41:47;99555.75;;;21.78;57.69
61136;BME280;47021;51.340;12.432;2023-09-19T05:44:18;99561.03;;;21.91;57.33
61136;BME280;47021;51.340;12.432;2023-09-19T05:46:53;99561.31;;;21.76;57.43
61136;BME280;47021;51.340;12.432;2023-09-19T05:52:02;99562.63;;;21.61;57.25
61136;BME280;47021;51.340;12.432;2023-09-19T05:54:32;99566.50;;;21.58;57.24
61136;BME280;47021;51.340;12.432;2023-09-19T05:57:09;99570.75;;;21.66;57.38
61136;BME280;47021;51.340;12.432;2023-09-19T05:59:40;99578.25;;;21.38;57.60
61136;BME280;47021;51.340;12.432;2023-09-19T06:02:10;99575.66;;;21.69;56.68
61136;BME280;47021;51.340;12.432;2023-09-19T06:04:42;99582.66;;;21.57;56.92
61136;BME280;47021;51.340;12.432;2023-09-19T06:07:09;99570.56;;;21.67;56.27
61136;BME280;47021;51.340;12.432;2023-09-19T06:09:49;99578.00;;;21.46;56.57
61136;BME280;47021;51.340;12.432;2023-09-19T06:12:15;99582.19;;;21.22;57.40
61136;BME280;47021;51.340;12.432;2023-09-19T06:14:42;99589.06;;;21.43;57.16
61136;BME280;47021;51.340;12.432;2023-09-19T06:17:15;99592.94;;;21.40;56.63
61136;BME280;47021;51.340;12.432;2023-09-19T06:19:55;99589.38;;;21.59;56.53
61136;BME280;47021;51.340;12.432;2023-09-19T06:22:27;99583.75;;;21.43;56.73
61136;BME280;47021;51.340;12.432;2023-09-19T06:27:35;99587.09;;;21.69;55.97
61136;BME280;47021;51.340;12.432;2023-09-19T06:30:01;99591.88;;;21.48;56.10
61136;BME280;47021;51.340;12.432;2023-09-19T06:35:13;99588.88;;;21.89;54.78
61136;BME280;47021;51.340;12.432;2023-09-19T06:37:40;99597.94;;;22.12;54.20
61136;BME280;47021;51.340;12.432;2023-09-19T06:40:10;99592.16;;;22.46;53.83
61136;BME280;47021;51.340;12.432;2023-09-19T06:42:36;99598.56;;;22.39;53.76
61136;BME280;47021;51.340;12.432;2023-09-19T06:45:04;99602.97;;;22.27;54.07
61136;BME280;47021;51.340;12.432;2023-09-19T06:47:37;99608.34;;;22.45;53.61
61136;BME280;47021;51.340;12.432;2023-09-19T06:50:05;99606.50;;;22.45;53.13
61136;BME280;47021;51.340;12.432;2023-09-19T06:52:32;99614.19;;;22.60;53.17
61136;BME280;47021;51.340;12.432;2023-09-19T06:54:58;99615.84;;;23.22;51.39
61136;BME280;47021;51.340;12.432;2023-09-19T06:57:25;99613.09;;;23.35;51.14
61136;BME280;47021;51.340;12.432;2023-09-19T07:00:02;99622.31;;;23.33;51.28
61136;BME280;47021;51.340;12.432;2023-09-19T07:02:28;99628.47;;;23.33;51.08
61136;BME280;47021;51.340;12.432;2023-09-19T07:04:54;99631.88;;;23.76;50.21
61136;BME280;47021;51.340;12.432;2023-09-19T07:07:32;99625.38;;;24.32;49.47
61136;BME280;47021;51.340;12.432;2023-09-19T07:09:58;99622.94;;;24.01;49.22
61136;BME280;47021;51.340;12.432;2023-09-19T07:15:08;99639.53;;;23.55;49.67
61136;BME280;47021;51.340;12.432;2023-09-19T07:17:35;99639.22;;;23.02;50.39
61136;BME280;47021;51.340;12.432;2023-09-19T07:20:02;99634.19;;;23.37;49.11
61136;BME280;47021;51.340;12.432;2023-09-19T07:27:38;99648.88;;;23.21;48.41
61136;BME280;47021;51.340;12.432;2023-09-19T07:52:09;99712.06;;;23.39;46.46
61136;BME280;47021;51.340;12.432;2023-09-19T08:00:19;99724.22;;;22.79;47.71
61136;BME280;47021;51.340;12.432;2023-09-19T08:03:00;99721.09;;;22.88;47.99
61136;BME280;47021;51.340;12.432;2023-09-19T08:13:41;99718.59;;;23.18;46.98
61136;BME280;47021;51.340;12.432;2023-09-19T08:16:20;99737.56;;;23.53;46.74
61136;BME280;47021;51.340;12.432;2023-09-19T08:18:49;99737.31;;;23.36;46.80
61136;BME280;47021;51.340;12.432;2023-09-19T08:21:14;99727.97;;;23.88;46.19
61136;BME280;47021;51.340;12.432;2023-09-19T08:23:40;99729.84;;;23.45;46.14
61136;BME280;47021;51.340;12.432;2023-09-19T08:28:51;99733.06;;;22.73;48.35
61136;BME280;47021;51.340;12.432;2023-09-19T08:36:54;99737.16;;;22.31;49.10
61136;BME280;47021;51.340;12.432;2023-09-19T08:39:20;99738.09;;;23.61;46.57
61136;BME280;47021;51.340;12.432;2023-09-19T08:44:29;99736.81;;;23.46;47.05
61136;BME280;47021;51.340;12.432;2023-09-19T08:47:01;99725.66;;;23.73;46.58
61136;BME280;47021;51.340;12.432;2023-09-19T08:52:23;99725.81;;;23.78;46.31
61136;BME280;47021;51.340;12.432;2023-09-19T08:54:51;99735.00;;;23.15;47.19
61136;BME280;47021;51.340;12.432;2023-09-19T08:57:23;99733.09;;;22.97;48.40
61136;BME280;47021;51.340;12.432;2023-09-19T09:02:48;99724.91;;;22.68;48.59
61136;BME280;47021;51.340;12.432;2023-09-19T09:05:13;99735.16;;;23.45;47.82
61136;BME280;47021;51.340;12.432;2023-09-19T09:07:45;99726.41;;;23.13;47.56
61136;BME280;47021;51.340;12.432;2023-09-19T09:10:18;99730.34;;;23.35;47.26
61136;BME280;47021;51.340;12.432;2023-09-19T09:12:45;99741.22;;;23.58;47.09
61136;BME280;47021;51.340;12.432;2023-09-19T09:15:17;99731.34;;;23.77;46.61
61136;BME280;47021;51.340;12.432;2023-09-19T09:17:52;99732.16;;;23.96;45.40
61136;BME280;47021;51.340;12.432;2023-09-19T09:20:17;99728.75;;;23.88;46.12
61136;BME280;47021;51.340;12.432;2023-09-19T09:22:53;99726.41;;;24.46;45.13
61136;BME280;47021;51.340;12.432;2023-09-19T09:28:03;99713.47;;;24.91;42.83
61136;BME280;47021;51.340;12.432;2023-09-19T09:33:08;99727.72;;;24.55;42.77
61136;BME280;47021;51.340;12.432;2023-09-19T09:38:19;99730.63;;;24.54;41.21
61136;BME280;47021;51.340;12.432;2023-09-19T09:40:55;99717.81;;;24.15;39.11
61136;BME280;47021;51.340;12.432;2023-09-19T09:43:31;99736.41;;;24.51;37.84
61136;BME280;47021;51.340;12.432;2023-09-19T09:48:41;99738.34;;;24.14;38.03
61136;BME280;47021;51.340;12.432;2023-09-19T09:51:08;99733.06;;;24.55;38.04
61136;BME280;47021;51.340;12.432;2023-09-19T09:56:18;99738.88;;;24.94;37.68
61136;BME280;47021;51.340;12.432;2023-09-19T09:58:51;99733.28;;;25.48;37.22
61136;BME280;47021;51.340;12.432;2023-09-19T10:01:23;99750.38;;;24.35;38.72
61136;BME280;47021;51.340;12.432;2023-09-19T10:03:48;99745.56;;;24.25;39.13
61136;BME280;47021;51.340;12.432;2023-09-19T10:09:01;99747.97;;;23.97;39.18
61136;BME280;47021;51.340;12.432;2023-09-19T10:14:00;99752.47;;;23.78;40.14
61136;BME280;47021;51.340;12.432;2023-09-19T10:19:10;99756.84;;;24.57;38.43
61136;BME280;47021;51.340;12.432;2023-09-19T10:21:37;99751.00;;;24.01;39.72
61136;BME280;47021;51.340;12.432;2023-09-19T10:24:03;99771.16;;;23.29;40.45
61136;BME280;47021;51.340;12.432;2023-09-19T10:26:31;99766.59;;;23.61;40.70
61136;BME280;47021;51.340;12.432;2023-09-19T10:28:57;99772.25;;;23.71;40.92
61136;BME280;47021;51.340;12.432;2023-09-19T10:31:24;99766.84;;;23.35;41.20
61136;BME280;47021;51.340;12.432;2023-09-19T10:33:50;99753.81;;;24.24;40.27
61136;BME280;47021;51.340;12.432;2023-09-19T10:36:16;99780.56;;;23.81;40.48
61136;BME280;47021;51.340;12.432;2023-09-19T10:38:43;99771.91;;;24.04;40.28
61136;BME280;47021;51.340;12.432;2023-09-19T10:41:10;99767.00;;;24.67;39.87
61136;BME280;47021;51.340;12.432;2023-09-19T10:43:36;99770.88;;;24.52;39.68
61136;BME280;47021;51.340;12.432;2023-09-19T10:46:08;99766.13;;;24.07;40.50
61136;BME280;47021;51.340;12.432;2023-09-19T10:48:43;99764.53;;;24.83;38.58
61136;BME280;47021;51.340;12.432;2023-09-19T10:51:19;99765.25;;;24.61;39.62
61136;BME280;47021;51.340;12.432;2023-09-19T10:53:47;99768.31;;;24.46;39.18
61136;BME280;47021;51.340;12.432;2023-09-19T10:56:24;99760.25;;;24.94;38.86
61136;BME280;47021;51.340;12.432;2023-09-19T10:59:26;99776.06;;;24.18;39.66
61136;BME280;47021;51.340;12.432;2023-09-19T11:04:22;99759.81;;;25.08;38.64
61136;BME280;47021;51.340;12.432;2023-09-19T11:07:06;99751.34;;;24.70;38.73
61136;BME280;47021;51.340;12.432;2023-09-19T11:14:57;99773.47;;;24.77;37.74
61136;BME280;47021;51.340;12.432;2023-09-19T11:17:35;99768.88;;;25.19;36.90
61136;BME280;47021;51.340;12.432;2023-09-19T11:30:34;99765.72;;;24.99;35.59
61136;BME280;47021;51.340;12.432;2023-09-19T11:49:26;99753.31;;;25.04;35.29
61136;BME280;47021;51.340;12.432;2023-09-19T11:51:52;99754.00;;;26.04;33.94
61136;BME280;47021;51.340;12.432;2023-09-19T11:54:17;99764.03;;;25.74;34.35
61136;BME280;47021;51.340;12.432;2023-09-19T11:56:49;99761.41;;;24.86;35.51
61136;BME280;47021;51.340;12.432;2023-09-19T11:59:19;99752.63;;;25.09;34.83
61136;BME280;47021;51.340;12.432;2023-09-19T12:01:52;99751.47;;;25.16;34.96
61136;BME280;47021;51.340;12.432;2023-09-19T12:04:20;99738.72;;;25.53;34.66
61136;BME280;47021;51.340;12.432;2023-09-19T12:06:59;99742.28;;;25.24;34.92
61136;BME280;47021;51.340;12.432;2023-09-19T12:09:24;99748.00;;;25.74;34.80
61136;BME280;47021;51.340;12.432;2023-09-19T12:11:50;99755.28;;;25.09;35.87
61136;BME280;47021;51.340;12.432;2023-09-19T12:14:26;99741.84;;;25.39;35.60
61136;BME280;47021;51.340;12.432;2023-09-19T12:17:04;99752.88;;;24.78;36.05
61136;BME280;47021;51.340;12.432;2023-09-19T12:19:32;99751.38;;;25.69;35.52
61136;BME280;47021;51.340;12.432;2023-09-19T12:21:59;99756.56;;;25.99;35.12
61136;BME280;47021;51.340;12.432;2023-09-19T12:24:40;99752.41;;;25.91;34.35
61136;BME280;47021;51.340;12.432;2023-09-19T12:27:10;99742.16;;;25.31;35.63
61136;BME280;47021;51.340;12.432;2023-09-19T12:29:48;99753.28;;;24.93;36.33
61136;BME280;47021;51.340;12.432;2023-09-19T12:40:47;99734.88;;;25.49;35.12
61136;BME280;47021;51.340;12.432;2023-09-19T12:43:18;99733.44;;;25.81;34.64
61136;BME280;47021;51.340;12.432;2023-09-19T12:45:50;99734.56;;;25.46;35.49
61136;BME280;47021;51.340;12.432;2023-09-19T12:48:35;99734.97;;;25.89;34.78
61136;BME280;47021;51.340;12.432;2023-09-19T12:51:14;99730.63;;;26.00;35.27
61136;BME280;47021;51.340;12.432;2023-09-19T12:53:47;99736.56;;;25.90;34.53
61136;BME280;47021;51.340;12.432;2023-09-19T12:58:55;99722.78;;;25.47;35.05
61136;BME280;47021;51.340;12.432;2023-09-19T13:01:40;99724.94;;;25.96;34.44
61136;BME280;47021;51.340;12.432;2023-09-19T18:08:21;99730.53;;;23.58;37.69
